createdAt,value
2022-10-05T00:00:19.812Z,101228.13
2022-10-05T00:02:47.922Z,101222.00
2022-10-05T00:05:22.090Z,101205.94
2022-10-05T00:07:49.635Z,101217.31
2022-10-05T00:10:20.180Z,101206.75
2022-10-05T00:12:48.731Z,101204.31
2022-10-05T00:15:18.754Z,101205.97
2022-10-05T00:17:46.267Z,101200.75
2022-10-05T00:20:18.899Z,101191.13
2022-10-05T00:22:46.609Z,101186.50
2022-10-05T00:25:16.635Z,101184.22
2022-10-05T00:27:47.155Z,101178.94
2022-10-05T00:30:16.531Z,101185.66
2022-10-05T00:32:44.293Z,101185.56
2022-10-05T00:35:13.175Z,101181.91
2022-10-05T00:37:41.008Z,101182.50
2022-10-05T00:40:15.663Z,101183.78
2022-10-05T00:42:50.735Z,101191.09
2022-10-05T00:45:22.259Z,101180.47
2022-10-05T00:47:58.803Z,101174.03
2022-10-05T00:50:45.944Z,101165.09
2022-10-05T00:53:25.665Z,101157.81
2022-10-05T00:56:00.397Z,101171.59
2022-10-05T00:58:39.535Z,101171.69
2022-10-05T01:01:10.645Z,101177.53
2022-10-05T01:03:46.056Z,101180.25
2022-10-05T01:06:22.355Z,101174.56
2022-10-05T01:08:55.275Z,101174.06
2022-10-05T01:11:28.673Z,101172.25
2022-10-05T01:14:02.063Z,101166.56
2022-10-05T01:16:32.414Z,101172.09
2022-10-05T01:19:03.038Z,101167.16
2022-10-05T01:21:34.369Z,101165.03
2022-10-05T01:24:16.356Z,101166.41
2022-10-05T01:26:57.244Z,101169.75
2022-10-05T01:29:33.249Z,101174.50
2022-10-05T01:32:05.598Z,101179.06
2022-10-05T01:34:39.103Z,101165.56
2022-10-05T01:37:12.799Z,101176.09
2022-10-05T01:39:44.866Z,101175.25
2022-10-05T01:42:15.071Z,101177.81
2022-10-05T01:44:50.927Z,101172.50
2022-10-05T01:47:22.694Z,101175.31
2022-10-05T01:49:57.739Z,101173.31
2022-10-05T01:52:31.584Z,101165.72
2022-10-05T01:55:08.545Z,101161.63
2022-10-05T01:57:44.671Z,101153.91
2022-10-05T02:00:14.623Z,101146.94
2022-10-05T02:02:46.463Z,101142.94
2022-10-05T02:05:17.960Z,101138.59
2022-10-05T02:07:49.185Z,101126.66
2022-10-05T02:10:22.040Z,101121.50
2022-10-05T02:12:54.236Z,101125.06
2022-10-05T02:15:27.156Z,101122.13
2022-10-05T02:17:58.623Z,101121.97
2022-10-05T02:20:28.998Z,101118.63
2022-10-05T02:23:01.593Z,101124.31
2022-10-05T02:25:31.478Z,101120.38
2022-10-05T02:28:03.358Z,101133.25
2022-10-05T02:30:34.483Z,101116.38
2022-10-05T02:33:04.451Z,101118.16
2022-10-05T02:35:31.928Z,101111.06
2022-10-05T02:38:06.697Z,101105.50
2022-10-05T02:40:42.517Z,101099.47
2022-10-05T02:43:18.534Z,101098.63
2022-10-05T02:45:54.411Z,101093.78
2022-10-05T02:48:29.681Z,101088.22
2022-10-05T02:51:03.332Z,101083.13
2022-10-05T02:53:35.657Z,101094.72
2022-10-05T02:56:11.659Z,101097.38
2022-10-05T02:58:46.123Z,101104.63
2022-10-05T03:01:19.847Z,101107.25
2022-10-05T03:03:57.153Z,101104.25
2022-10-05T03:06:28.608Z,101110.16
2022-10-05T03:09:01.312Z,101117.72
2022-10-05T03:11:32.970Z,101113.75
2022-10-05T03:14:04.424Z,101114.59
2022-10-05T03:16:46.122Z,101116.06
2022-10-05T03:19:32.423Z,101121.97
2022-10-05T03:22:03.817Z,101129.22
2022-10-05T03:24:48.459Z,101128.31
2022-10-05T03:27:26.817Z,101137.09
2022-10-05T03:29:59.065Z,101134.66
2022-10-05T03:32:33.073Z,101135.75
2022-10-05T03:35:04.965Z,101129.84
2022-10-05T03:37:40.296Z,101135.56
2022-10-05T03:40:11.211Z,101135.38
2022-10-05T03:42:50.673Z,101132.88
2022-10-05T03:45:24.049Z,101130.78
2022-10-05T03:48:01.285Z,101128.66
2022-10-05T03:50:35.758Z,101137.28
2022-10-05T03:53:05.873Z,101137.97
2022-10-05T03:55:37.444Z,101132.25
2022-10-05T03:58:08.358Z,101135.97
2022-10-05T04:00:36.627Z,101135.38
2022-10-05T04:03:10.474Z,101121.50
2022-10-05T04:05:43.589Z,101122.84
2022-10-05T04:08:13.058Z,101112.19
2022-10-05T04:10:43.155Z,101116.16
2022-10-05T04:13:15.322Z,101117.84
2022-10-05T04:15:45.940Z,101115.03
2022-10-05T04:18:23.200Z,101114.88
2022-10-05T04:20:52.665Z,101115.47
2022-10-05T04:23:24.955Z,101110.16
2022-10-05T04:25:55.059Z,101110.56
2022-10-05T04:28:31.196Z,101121.34
2022-10-05T04:31:01.296Z,101116.44
2022-10-05T04:33:30.116Z,101121.53
2022-10-05T04:36:16.843Z,101123.66
2022-10-05T04:39:03.695Z,101127.22
2022-10-05T04:41:42.363Z,101128.06
2022-10-05T04:44:22.837Z,101133.34
2022-10-05T04:47:03.282Z,101129.94
2022-10-05T04:49:45.427Z,101139.47
2022-10-05T04:52:16.233Z,101142.94
2022-10-05T04:54:51.334Z,101149.09
2022-10-05T04:57:21.958Z,101154.41
2022-10-05T05:00:11.145Z,101149.03
2022-10-05T05:02:57.568Z,101153.00
2022-10-05T05:05:33.646Z,101147.00
2022-10-05T05:08:10.171Z,101148.78
2022-10-05T05:11:15.282Z,101143.06
2022-10-05T05:14:08.347Z,101147.53
2022-10-05T05:16:38.382Z,101153.28
2022-10-05T05:19:34.696Z,101145.03
2022-10-05T05:22:05.260Z,101151.47
2022-10-05T05:24:41.018Z,101155.31
2022-10-05T05:27:19.881Z,101169.94
2022-10-05T05:29:54.337Z,101162.50
2022-10-05T05:32:26.333Z,101170.34
2022-10-05T05:35:06.829Z,101175.97
2022-10-05T05:37:39.960Z,101173.69
2022-10-05T05:40:15.075Z,101175.03
2022-10-05T05:42:49.433Z,101181.41
2022-10-05T05:45:19.456Z,101173.78
2022-10-05T05:47:53.704Z,101170.66
2022-10-05T05:50:32.485Z,101181.50
2022-10-05T05:53:06.075Z,101183.53
2022-10-05T05:55:36.386Z,101179.72
2022-10-05T05:58:05.820Z,101179.41
2022-10-05T06:00:37.609Z,101174.28
2022-10-05T06:03:10.115Z,101172.28
2022-10-05T06:05:42.236Z,101180.31
2022-10-05T06:08:17.624Z,101174.16
2022-10-05T06:10:47.674Z,101173.53
2022-10-05T06:13:20.180Z,101164.72
2022-10-05T06:15:50.765Z,101169.38
2022-10-05T06:18:20.789Z,101178.06
2022-10-05T06:20:53.144Z,101173.47
2022-10-05T06:23:24.328Z,101177.28
2022-10-05T06:26:09.761Z,101185.78
2022-10-05T06:28:38.418Z,101177.81
2022-10-05T06:31:13.976Z,101182.50
2022-10-05T06:33:47.814Z,101170.88
2022-10-05T06:36:35.492Z,101177.03
2022-10-05T06:39:18.037Z,101173.41
2022-10-05T06:41:55.856Z,101173.91
2022-10-05T06:44:27.037Z,101178.91
2022-10-05T06:47:01.186Z,101169.25
2022-10-05T06:49:32.106Z,101179.56
2022-10-05T06:52:05.983Z,101188.41
2022-10-05T06:54:43.560Z,101185.41
2022-10-05T06:57:16.629Z,101187.75
2022-10-05T06:59:51.074Z,101184.53
2022-10-05T07:02:23.642Z,101186.41
2022-10-05T07:05:14.302Z,101193.56
2022-10-05T07:07:45.425Z,101198.06
2022-10-05T07:10:20.785Z,101192.56
2022-10-05T07:13:00.408Z,101192.22
2022-10-05T07:15:40.265Z,101186.75
2022-10-05T07:18:23.862Z,101195.56
2022-10-05T07:20:56.771Z,101193.38
2022-10-05T07:23:30.870Z,101196.38
2022-10-05T07:26:05.183Z,101189.56
2022-10-05T07:28:38.358Z,101196.06
2022-10-05T07:31:11.325Z,101201.53
2022-10-05T07:33:43.092Z,101194.56
2022-10-05T07:36:31.606Z,101198.03
2022-10-05T07:39:03.989Z,101193.88
2022-10-05T07:41:40.069Z,101193.53
2022-10-05T07:44:13.276Z,101191.16
2022-10-05T07:46:47.969Z,101191.50
2022-10-05T07:49:21.547Z,101194.97
2022-10-05T07:51:52.215Z,101188.66
2022-10-05T07:54:22.902Z,101189.13
2022-10-05T07:56:55.924Z,101200.06
2022-10-05T07:59:28.332Z,101188.41
2022-10-05T08:02:03.795Z,101201.38
2022-10-05T08:04:39.432Z,101192.25
2022-10-05T08:07:13.247Z,101183.75
2022-10-05T08:09:45.350Z,101193.44
2022-10-05T08:12:22.089Z,101189.91
2022-10-05T08:14:53.938Z,101184.69
2022-10-05T08:17:27.393Z,101191.03
2022-10-05T08:20:02.605Z,101185.28
2022-10-05T08:22:32.110Z,101186.75
2022-10-05T08:25:02.630Z,101194.38
2022-10-05T08:27:35.536Z,101183.59
2022-10-05T08:30:05.746Z,101180.53
2022-10-05T08:32:39.016Z,101187.31
2022-10-05T08:35:26.957Z,101173.91
2022-10-05T08:37:55.259Z,101186.94
2022-10-05T08:40:46.123Z,101183.59
2022-10-05T08:43:30.592Z,101183.47
2022-10-05T08:46:23.141Z,101179.94
2022-10-05T08:49:17.766Z,101178.81
2022-10-05T08:52:12.451Z,101163.59
2022-10-05T08:54:46.583Z,101175.25
2022-10-05T08:57:55.634Z,101177.16
2022-10-05T09:00:24.799Z,101172.16
2022-10-05T09:03:25.070Z,101169.78
2022-10-05T09:06:44.776Z,101176.09
2022-10-05T09:09:29.075Z,101173.69
2022-10-05T09:12:24.141Z,101172.38
2022-10-05T09:15:20.919Z,101169.69
2022-10-05T09:18:17.634Z,101172.09
2022-10-05T09:20:52.681Z,101174.31
2022-10-05T09:23:32.573Z,101174.69
2022-10-05T09:26:05.521Z,101172.19
2022-10-05T09:28:35.540Z,101174.94
2022-10-05T09:31:27.240Z,101175.53
2022-10-05T09:34:13.762Z,101173.75
2022-10-05T09:37:23.761Z,101167.50
2022-10-05T09:40:18.088Z,101161.66
2022-10-05T09:43:16.472Z,101166.69
2022-10-05T09:46:10.247Z,101153.41
2022-10-05T09:49:06.248Z,101158.63
2022-10-05T09:52:10.185Z,101151.72
2022-10-05T09:55:09.260Z,101144.56
2022-10-05T09:57:53.453Z,101150.88
2022-10-05T10:00:25.948Z,101137.50
2022-10-05T10:03:19.955Z,101131.22
2022-10-05T10:06:14.940Z,101133.59
2022-10-05T10:08:50.619Z,101136.38
2022-10-05T10:11:29.625Z,101124.91
2022-10-05T10:14:19.669Z,101122.09
2022-10-05T10:16:57.822Z,101129.50
2022-10-05T10:19:46.073Z,101119.69
2022-10-05T10:22:48.513Z,101121.31
2022-10-05T10:25:31.678Z,101118.66
2022-10-05T10:28:14.523Z,101121.53
2022-10-05T10:31:02.433Z,101128.84
2022-10-05T10:33:59.947Z,101118.03
2022-10-05T10:36:40.093Z,101124.19
2022-10-05T10:39:10.951Z,101127.38
2022-10-05T10:42:13.521Z,101116.00
2022-10-05T10:45:03.567Z,101118.28
2022-10-05T10:47:52.576Z,101117.25
2022-10-05T10:50:33.070Z,101118.28
2022-10-05T10:53:11.889Z,101114.19
2022-10-05T10:55:43.482Z,101115.72
2022-10-05T10:58:43.831Z,101105.66
2022-10-05T11:01:27.063Z,101100.31
2022-10-05T11:04:27.239Z,101089.97
2022-10-05T11:07:35.159Z,101094.56
2022-10-05T11:10:25.930Z,101085.47
2022-10-05T11:13:24.668Z,101085.03
2022-10-05T11:16:17.284Z,101078.41
2022-10-05T11:18:55.133Z,101081.94
2022-10-05T11:21:30.291Z,101081.69
2022-10-05T11:24:48.441Z,101077.97
2022-10-05T11:27:36.853Z,101073.81
2022-10-05T11:30:15.340Z,101068.63
2022-10-05T11:33:25.026Z,101063.03
2022-10-05T11:36:14.965Z,101062.19
2022-10-05T11:39:04.048Z,101066.94
2022-10-05T11:41:59.358Z,101060.41
2022-10-05T11:44:43.852Z,101058.50
2022-10-05T11:47:14.101Z,101061.66
2022-10-05T11:49:45.702Z,101057.69
2022-10-05T11:52:17.689Z,101051.91
2022-10-05T11:55:10.896Z,101048.78
2022-10-05T11:57:40.964Z,101045.28
2022-10-05T12:00:15.087Z,101044.97
2022-10-05T12:03:24.016Z,101046.72
2022-10-05T12:06:19.110Z,101036.56
2022-10-05T12:08:57.000Z,101030.31
2022-10-05T12:11:41.349Z,101034.03
2022-10-05T12:14:14.503Z,101032.28
2022-10-05T12:16:47.066Z,101030.91
2022-10-05T12:19:19.304Z,101021.28
2022-10-05T12:21:51.787Z,101025.38
2022-10-05T12:24:26.987Z,101024.50
2022-10-05T12:26:58.868Z,101012.34
2022-10-05T12:29:29.033Z,101019.69
2022-10-05T12:32:00.823Z,101009.56
2022-10-05T12:34:37.570Z,101018.28
2022-10-05T12:37:12.006Z,101020.66
2022-10-05T12:39:44.461Z,101015.56
2022-10-05T12:42:20.219Z,101004.25
2022-10-05T12:44:59.266Z,100997.75
2022-10-05T12:47:31.195Z,101008.75
2022-10-05T12:50:04.637Z,100986.91
2022-10-05T12:52:50.807Z,101006.59
2022-10-05T12:55:25.941Z,100997.81
2022-10-05T12:58:05.227Z,101004.84
2022-10-05T13:00:34.820Z,100993.94
2022-10-05T13:03:05.181Z,100988.03
2022-10-05T13:05:38.899Z,100985.13
2022-10-05T13:08:17.683Z,100985.00
2022-10-05T13:10:47.562Z,100979.53
2022-10-05T13:13:38.581Z,100983.19
2022-10-05T13:16:15.330Z,100976.00
2022-10-05T13:18:54.308Z,100971.81
2022-10-05T13:21:24.733Z,100979.69
2022-10-05T13:23:59.346Z,100978.84
2022-10-05T13:26:29.357Z,100975.41
2022-10-05T13:29:00.464Z,100969.03
2022-10-05T13:31:30.257Z,100972.56
2022-10-05T13:34:15.385Z,100977.97
2022-10-05T13:36:49.183Z,100973.31
2022-10-05T13:39:28.659Z,100970.16
2022-10-05T13:42:00.587Z,100972.53
2022-10-05T13:44:34.624Z,100970.66
2022-10-05T13:47:03.147Z,100961.88
2022-10-05T13:49:37.302Z,100957.88
2022-10-05T13:52:17.878Z,100963.13
2022-10-05T13:54:53.322Z,100958.47
2022-10-05T13:57:35.591Z,100957.09
2022-10-05T14:00:05.593Z,100959.22
2022-10-05T14:02:39.993Z,100961.81
2022-10-05T14:05:16.993Z,100964.88
2022-10-05T14:07:54.755Z,100955.50
2022-10-05T14:10:36.505Z,100949.56
2022-10-05T14:13:19.143Z,100948.75
2022-10-05T14:15:59.354Z,100947.00
2022-10-05T14:18:29.649Z,100936.31
2022-10-05T14:21:05.288Z,100945.25
2022-10-05T14:23:32.848Z,100932.94
2022-10-05T14:26:04.527Z,100941.41
2022-10-05T14:28:33.967Z,100936.94
2022-10-05T14:31:04.897Z,100936.81
2022-10-05T14:33:33.950Z,100932.72
2022-10-05T14:36:02.430Z,100927.09
2022-10-05T14:38:31.068Z,100923.69
2022-10-05T14:41:13.336Z,100921.94
2022-10-05T14:43:50.619Z,100921.69
2022-10-05T14:46:28.159Z,100912.06
2022-10-05T14:49:13.720Z,100912.66
2022-10-05T14:51:42.711Z,100904.41
2022-10-05T14:54:27.393Z,100913.69
2022-10-05T14:57:02.364Z,100904.66
2022-10-05T14:59:51.227Z,100901.72
2022-10-05T15:02:35.141Z,100909.13
2022-10-05T15:05:05.535Z,100899.50
2022-10-05T15:07:37.393Z,100892.69
2022-10-05T15:10:26.830Z,100881.28
2022-10-05T15:12:58.225Z,100886.22
2022-10-05T15:15:29.777Z,100881.66
2022-10-05T15:18:01.333Z,100865.69
2022-10-05T15:20:32.990Z,100870.94
2022-10-05T15:23:10.838Z,100866.38
2022-10-05T15:25:45.536Z,100860.16
2022-10-05T15:28:22.437Z,100867.31
2022-10-05T15:30:53.721Z,100865.91
2022-10-05T15:33:27.617Z,100858.28
2022-10-05T15:36:11.067Z,100853.44
2022-10-05T15:38:49.687Z,100850.16
2022-10-05T15:41:20.222Z,100846.03
2022-10-05T15:44:06.557Z,100853.56
2022-10-05T15:46:36.898Z,100848.25
2022-10-05T15:49:16.217Z,100847.88
2022-10-05T15:51:55.432Z,100844.81
2022-10-05T15:54:42.700Z,100840.41
2022-10-05T15:57:17.399Z,100847.03
2022-10-05T15:59:54.552Z,100839.81
2022-10-05T16:02:25.765Z,100840.13
2022-10-05T16:05:03.835Z,100844.91
2022-10-05T16:07:57.712Z,100840.47
2022-10-05T16:10:25.735Z,100844.56
2022-10-05T16:13:05.094Z,100844.88
2022-10-05T16:15:36.936Z,100850.50
2022-10-05T16:18:31.182Z,100847.44
2022-10-05T16:21:09.481Z,100850.44
2022-10-05T16:23:44.715Z,100853.81
2022-10-05T16:26:23.766Z,100850.84
2022-10-05T16:28:58.617Z,100851.59
2022-10-05T16:31:34.432Z,100856.91
2022-10-05T16:34:09.359Z,100859.97
2022-10-05T16:36:49.168Z,100863.72
2022-10-05T16:39:21.009Z,100861.25
2022-10-05T16:41:52.256Z,100866.78
2022-10-05T16:44:27.210Z,100864.75
2022-10-05T16:46:59.629Z,100872.25
2022-10-05T16:49:36.792Z,100882.09
2022-10-05T16:52:06.881Z,100871.78
2022-10-05T16:54:39.064Z,100873.53
2022-10-05T16:57:12.614Z,100881.25
2022-10-05T17:00:00.451Z,100885.06
2022-10-05T17:02:40.022Z,100880.94
2022-10-05T17:05:19.977Z,100887.63
2022-10-05T17:07:55.675Z,100888.91
2022-10-05T17:10:49.681Z,100885.22
2022-10-05T17:13:30.613Z,100889.03
2022-10-05T17:16:04.972Z,100888.19
2022-10-05T17:19:08.534Z,100894.06
2022-10-05T17:21:44.349Z,100896.13
2022-10-05T17:24:28.900Z,100909.81
2022-10-05T17:27:02.410Z,100916.00
2022-10-05T17:29:42.735Z,100915.25
2022-10-05T17:32:12.887Z,100925.34
2022-10-05T17:34:40.926Z,100929.75
2022-10-05T17:37:35.089Z,100935.72
2022-10-05T17:40:32.702Z,100954.94
2022-10-05T17:43:01.388Z,100943.34
2022-10-05T17:45:52.730Z,100950.59
2022-10-05T17:48:41.217Z,100955.75
2022-10-05T17:51:34.659Z,100964.19
2022-10-05T17:54:37.303Z,100968.31
2022-10-05T17:57:28.675Z,100966.66
2022-10-05T18:00:01.997Z,100983.59
2022-10-05T18:02:42.766Z,100978.22
2022-10-05T18:05:25.717Z,100976.53
2022-10-05T18:08:32.512Z,100985.63
2022-10-05T18:11:17.081Z,100986.22
2022-10-05T18:13:50.041Z,100996.72
2022-10-05T18:16:51.182Z,100994.88
2022-10-05T18:19:21.199Z,100995.69
2022-10-05T18:22:04.427Z,100999.56
2022-10-05T18:24:46.676Z,101001.19
2022-10-05T18:28:00.920Z,101012.06
2022-10-05T18:30:31.911Z,101014.94
2022-10-05T18:33:29.896Z,101012.06
2022-10-05T18:36:07.423Z,101016.81
2022-10-05T18:38:44.480Z,101007.13
2022-10-05T18:41:19.943Z,101022.78
2022-10-05T18:43:55.822Z,101013.88
2022-10-05T18:46:33.884Z,101017.31
2022-10-05T18:49:11.334Z,101023.66
2022-10-05T18:51:51.678Z,101025.06
2022-10-05T18:54:32.346Z,101035.59
2022-10-05T18:57:01.213Z,101032.63
2022-10-05T18:59:40.688Z,101039.00
2022-10-05T19:02:16.150Z,101040.66
2022-10-05T19:04:53.500Z,101045.97
2022-10-05T19:07:30.279Z,101053.38
2022-10-05T19:10:09.720Z,101055.84
2022-10-05T19:12:46.310Z,101065.53
2022-10-05T19:15:21.145Z,101062.38
2022-10-05T19:18:11.431Z,101069.41
2022-10-05T19:20:42.950Z,101067.69
2022-10-05T19:23:22.983Z,101077.31
2022-10-05T19:25:54.693Z,101074.25
2022-10-05T19:28:28.691Z,101074.69
2022-10-05T19:31:15.516Z,101086.66
2022-10-05T19:33:56.533Z,101089.53
2022-10-05T19:36:36.932Z,101094.50
2022-10-05T19:39:08.952Z,101093.25
2022-10-05T19:41:50.120Z,101103.69
2022-10-05T19:44:30.956Z,101104.06
2022-10-05T19:47:03.135Z,101116.25
2022-10-05T19:49:44.579Z,101120.78
2022-10-05T19:52:14.013Z,101116.34
2022-10-05T19:54:42.917Z,101122.13
2022-10-05T19:57:17.025Z,101134.63
2022-10-05T19:59:48.320Z,101124.28
2022-10-05T20:02:18.079Z,101126.41
2022-10-05T20:04:47.476Z,101128.69
2022-10-05T20:07:16.953Z,101121.72
2022-10-05T20:09:53.897Z,101126.84
2022-10-05T20:12:22.966Z,101131.31
2022-10-05T20:15:26.661Z,101139.09
2022-10-05T20:18:13.218Z,101133.13
2022-10-05T20:20:45.749Z,101142.38
2022-10-05T20:23:20.560Z,101151.59
2022-10-05T20:26:08.687Z,101152.44
2022-10-05T20:28:36.319Z,101164.16
2022-10-05T20:31:04.202Z,101165.53
2022-10-05T20:33:34.237Z,101167.94
2022-10-05T20:36:03.539Z,101167.44
2022-10-05T20:38:34.393Z,101179.78
2022-10-05T20:41:03.827Z,101187.66
2022-10-05T20:43:31.335Z,101188.88
2022-10-05T20:45:58.898Z,101197.66
2022-10-05T20:48:26.949Z,101189.06
2022-10-05T20:50:57.065Z,101201.44
2022-10-05T20:53:24.603Z,101196.78
2022-10-05T20:55:52.188Z,101199.66
2022-10-05T20:58:19.736Z,101207.13
2022-10-05T21:01:16.434Z,101208.69
2022-10-05T21:03:44.084Z,101203.91
2022-10-05T21:06:13.387Z,101211.81
2022-10-05T21:08:40.982Z,101199.94
2022-10-05T21:11:08.919Z,101197.34
2022-10-05T21:13:38.477Z,101200.88
2022-10-05T21:16:08.644Z,101208.13
2022-10-05T21:18:37.183Z,101206.56
2022-10-05T21:21:05.044Z,101209.78
2022-10-05T21:23:33.891Z,101219.63
2022-10-05T21:26:01.635Z,101212.16
2022-10-05T21:28:30.118Z,101214.44
2022-10-05T21:30:58.228Z,101216.28
2022-10-05T21:33:26.223Z,101218.16
2022-10-05T21:35:54.116Z,101219.31
2022-10-05T21:38:21.686Z,101214.38
2022-10-05T21:40:51.190Z,101226.88
2022-10-05T21:43:18.936Z,101213.53
2022-10-05T21:45:47.157Z,101221.91
2022-10-05T21:48:16.253Z,101228.34
2022-10-05T21:50:43.938Z,101224.31
2022-10-05T21:53:13.502Z,101238.22
2022-10-05T21:55:42.045Z,101244.28
2022-10-05T21:58:11.905Z,101248.59
2022-10-05T22:00:41.013Z,101245.56
2022-10-05T22:03:08.852Z,101249.63
2022-10-05T22:05:36.554Z,101255.94
2022-10-05T22:08:04.421Z,101259.28
2022-10-05T22:10:32.742Z,101265.13
2022-10-05T22:13:01.488Z,101265.66
2022-10-05T22:15:31.507Z,101266.28
2022-10-05T22:17:59.577Z,101266.94
2022-10-05T22:20:27.356Z,101263.91
2022-10-05T22:22:54.922Z,101263.59
2022-10-05T22:25:22.835Z,101262.97
2022-10-05T22:27:50.589Z,101266.28
2022-10-05T22:30:18.681Z,101268.59
2022-10-05T22:32:47.494Z,101273.94
2022-10-05T22:35:15.064Z,101278.66
2022-10-05T22:37:42.529Z,101277.97
2022-10-05T22:40:11.128Z,101275.97
2022-10-05T22:42:40.477Z,101281.94
2022-10-05T22:45:09.205Z,101280.56
2022-10-05T22:47:36.755Z,101284.25
2022-10-05T22:50:06.209Z,101276.56
2022-10-05T22:52:33.713Z,101278.88
2022-10-05T22:55:01.172Z,101277.72
2022-10-05T22:57:28.670Z,101284.38
2022-10-05T22:59:56.112Z,101285.84
2022-10-05T23:02:23.632Z,101292.03
2022-10-05T23:04:51.076Z,101293.50
2022-10-05T23:07:20.982Z,101298.84
2022-10-05T23:09:48.449Z,101297.09
2022-10-05T23:12:15.918Z,101289.00
2022-10-05T23:14:43.392Z,101294.88
2022-10-05T23:17:10.861Z,101297.22
2022-10-05T23:19:38.326Z,101287.81
2022-10-05T23:22:05.796Z,101291.50
2022-10-05T23:24:35.336Z,101292.22
2022-10-05T23:27:02.837Z,101307.66
2022-10-05T23:29:30.302Z,101312.44
2022-10-05T23:31:57.788Z,101321.44
2022-10-05T23:34:27.194Z,101325.22
2022-10-05T23:36:54.637Z,101330.19
2022-10-05T23:39:22.131Z,101332.91
2022-10-05T23:41:51.026Z,101335.41
2022-10-05T23:44:18.559Z,101330.91
2022-10-05T23:46:46.020Z,101334.59
2022-10-05T23:49:14.659Z,101332.13
2022-10-05T23:51:42.277Z,101329.63
2022-10-05T23:54:09.704Z,101336.31
2022-10-05T23:56:37.237Z,101344.94
2022-10-05T23:59:06.018Z,101341.97
